sensor_id;sensor_type;location;lat;lon;timestamp;temperature;humidity
14517;DHT22;7344;50.864;4.362;2022-08-03T00:00:39;23.00;1.00
14517;DHT22;7344;50.864;4.362;2022-08-03T00:03:05;23.00;1.00
14517;DHT22;7344;50.864;4.362;2022-08-03T00:05:31;22.90;1.00
14517;DHT22;7344;50.864;4.362;2022-08-03T00:08:00;22.90;1.00
14517;DHT22;7344;50.864;4.362;2022-08-03T00:10:26;22.80;1.00
14517;DHT22;7344;50.864;4.362;2022-08-03T00:12:52;22.80;1.00
14517;DHT22;7344;50.864;4.362;2022-08-03T00:15:18;22.70;1.00
14517;DHT22;7344;50.864;4.362;2022-08-03T00:17:44;22.70;1.00
14517;DHT22;7344;50.864;4.362;2022-08-03T00:20:10;22.60;1.00
14517;DHT22;7344;50.864;4.362;2022-08-03T00:22:36;22.50;1.00
14517;DHT22;7344;50.864;4.362;2022-08-03T00:25:01;22.50;1.00
14517;DHT22;7344;50.864;4.362;2022-08-03T00:27:27;22.50;1.00
14517;DHT22;7344;50.864;4.362;2022-08-03T00:29:53;22.50;1.00
14517;DHT22;7344;50.864;4.362;2022-08-03T00:32:18;22.40;1.00
14517;DHT22;7344;50.864;4.362;2022-08-03T00:34:44;22.40;1.00
14517;DHT22;7344;50.864;4.362;2022-08-03T00:37:09;22.40;1.00
14517;DHT22;7344;50.864;4.362;2022-08-03T00:39:35;22.40;1.00
14517;DHT22;7344;50.864;4.362;2022-08-03T00:42:02;22.40;1.00
14517;DHT22;7344;50.864;4.362;2022-08-03T00:44:28;22.40;1.00
14517;DHT22;7344;50.864;4.362;2022-08-03T00:46:53;22.40;1.00
14517;DHT22;7344;50.864;4.362;2022-08-03T00:49:19;22.30;1.00
14517;DHT22;7344;50.864;4.362;2022-08-03T00:51:44;22.30;1.00
14517;DHT22;7344;50.864;4.362;2022-08-03T00:54:11;22.30;1.00
14517;DHT22;7344;50.864;4.362;2022-08-03T00:56:36;22.30;1.00
14517;DHT22;7344;50.864;4.362;2022-08-03T00:59:03;22.30;1.00
14517;DHT22;7344;50.864;4.362;2022-08-03T01:01:29;22.30;1.00
14517;DHT22;7344;50.864;4.362;2022-08-03T01:03:54;22.20;1.00
14517;DHT22;7344;50.864;4.362;2022-08-03T01:06:35;22.20;1.00
14517;DHT22;7344;50.864;4.362;2022-08-03T01:09:37;22.20;1.00
14517;DHT22;7344;50.864;4.362;2022-08-03T01:12:16;22.10;1.00
14517;DHT22;7344;50.864;4.362;2022-08-03T01:17:43;22.00;1.00
14517;DHT22;7344;50.864;4.362;2022-08-03T01:20:12;21.90;1.00
14517;DHT22;7344;50.864;4.362;2022-08-03T01:28:32;21.90;1.00
14517;DHT22;7344;50.864;4.362;2022-08-03T01:31:05;21.80;1.00
14517;DHT22;7344;50.864;4.362;2022-08-03T01:33:39;21.70;1.00
14517;DHT22;7344;50.864;4.362;2022-08-03T01:36:12;21.70;1.00
14517;DHT22;7344;50.864;4.362;2022-08-03T01:38:47;21.70;1.00
14517;DHT22;7344;50.864;4.362;2022-08-03T01:41:17;21.70;1.00
14517;DHT22;7344;50.864;4.362;2022-08-03T01:43:44;21.60;1.00
14517;DHT22;7344;50.864;4.362;2022-08-03T01:46:15;21.60;1.00
14517;DHT22;7344;50.864;4.362;2022-08-03T01:48:42;21.70;1.00
14517;DHT22;7344;50.864;4.362;2022-08-03T01:51:09;21.70;1.00
14517;DHT22;7344;50.864;4.362;2022-08-03T01:53:37;21.60;1.00
14517;DHT22;7344;50.864;4.362;2022-08-03T01:56:05;21.60;2.00
14517;DHT22;7344;50.864;4.362;2022-08-03T01:58:33;21.70;1.20
14517;DHT22;7344;50.864;4.362;2022-08-03T02:01:01;21.70;1.50
14517;DHT22;7344;50.864;4.362;2022-08-03T02:03:28;21.60;1.00
14517;DHT22;7344;50.864;4.362;2022-08-03T02:05:56;21.60;3.70
14517;DHT22;7344;50.864;4.362;2022-08-03T02:08:24;21.50;5.90
14517;DHT22;7344;50.864;4.362;2022-08-03T02:10:51;21.50;10.30
14517;DHT22;7344;50.864;4.362;2022-08-03T02:13:20;21.40;12.90
14517;DHT22;7344;50.864;4.362;2022-08-03T02:15:47;21.40;13.40
14517;DHT22;7344;50.864;4.362;2022-08-03T02:18:14;21.40;12.30
14517;DHT22;7344;50.864;4.362;2022-08-03T02:20:42;21.30;15.80
14517;DHT22;7344;50.864;4.362;2022-08-03T02:23:08;21.30;15.20
14517;DHT22;7344;50.864;4.362;2022-08-03T02:25:40;21.30;12.70
14517;DHT22;7344;50.864;4.362;2022-08-03T02:28:10;21.40;13.00
14517;DHT22;7344;50.864;4.362;2022-08-03T02:30:38;21.40;11.70
14517;DHT22;7344;50.864;4.362;2022-08-03T02:33:11;21.40;12.70
14517;DHT22;7344;50.864;4.362;2022-08-03T02:35:38;21.30;12.60
14517;DHT22;7344;50.864;4.362;2022-08-03T02:38:07;21.20;18.00
14517;DHT22;7344;50.864;4.362;2022-08-03T02:40:35;21.20;19.10
14517;DHT22;7344;50.864;4.362;2022-08-03T02:43:09;21.20;17.70
14517;DHT22;7344;50.864;4.362;2022-08-03T02:45:41;21.10;19.70
14517;DHT22;7344;50.864;4.362;2022-08-03T02:48:07;21.10;21.90
14517;DHT22;7344;50.864;4.362;2022-08-03T02:50:33;21.10;25.00
14517;DHT22;7344;50.864;4.362;2022-08-03T02:53:00;21.10;25.30
14517;DHT22;7344;50.864;4.362;2022-08-03T02:55:28;21.00;26.50
14517;DHT22;7344;50.864;4.362;2022-08-03T02:57:55;21.00;26.20
14517;DHT22;7344;50.864;4.362;2022-08-03T03:00:22;21.10;24.30
14517;DHT22;7344;50.864;4.362;2022-08-03T03:02:48;21.10;25.00
14517;DHT22;7344;50.864;4.362;2022-08-03T03:05:14;21.00;24.00
14517;DHT22;7344;50.864;4.362;2022-08-03T03:07:41;21.00;23.10
14517;DHT22;7344;50.864;4.362;2022-08-03T03:10:08;21.00;25.00
14517;DHT22;7344;50.864;4.362;2022-08-03T03:12:36;21.00;22.90
14517;DHT22;7344;50.864;4.362;2022-08-03T03:15:04;21.00;24.30
14517;DHT22;7344;50.864;4.362;2022-08-03T03:17:31;20.90;25.10
14517;DHT22;7344;50.864;4.362;2022-08-03T03:19:58;20.90;26.60
14517;DHT22;7344;50.864;4.362;2022-08-03T03:22:25;20.90;27.10
14517;DHT22;7344;50.864;4.362;2022-08-03T03:24:51;20.90;28.20
14517;DHT22;7344;50.864;4.362;2022-08-03T03:27:19;20.90;29.30
14517;DHT22;7344;50.864;4.362;2022-08-03T03:29:45;20.80;31.50
14517;DHT22;7344;50.864;4.362;2022-08-03T03:32:10;20.80;32.00
14517;DHT22;7344;50.864;4.362;2022-08-03T03:34:36;20.80;32.80
14517;DHT22;7344;50.864;4.362;2022-08-03T03:37:02;20.90;33.60
14517;DHT22;7344;50.864;4.362;2022-08-03T03:39:27;20.90;33.60
14517;DHT22;7344;50.864;4.362;2022-08-03T03:41:53;20.80;33.00
14517;DHT22;7344;50.864;4.362;2022-08-03T03:44:19;20.80;34.60
14517;DHT22;7344;50.864;4.362;2022-08-03T03:46:45;20.90;34.20
14517;DHT22;7344;50.864;4.362;2022-08-03T03:49:10;20.90;31.80
14517;DHT22;7344;50.864;4.362;2022-08-03T03:51:36;20.80;34.30
14517;DHT22;7344;50.864;4.362;2022-08-03T03:54:03;20.80;32.90
14517;DHT22;7344;50.864;4.362;2022-08-03T03:56:32;20.80;33.50
14517;DHT22;7344;50.864;4.362;2022-08-03T03:58:57;20.80;33.70
14517;DHT22;7344;50.864;4.362;2022-08-03T04:01:23;20.80;33.30
14517;DHT22;7344;50.864;4.362;2022-08-03T04:03:49;20.80;35.10
14517;DHT22;7344;50.864;4.362;2022-08-03T04:06:15;20.80;32.30
14517;DHT22;7344;50.864;4.362;2022-08-03T04:09:00;20.80;34.70
14517;DHT22;7344;50.864;4.362;2022-08-03T04:11:52;20.80;33.50
14517;DHT22;7344;50.864;4.362;2022-08-03T04:14:19;20.70;37.70
14517;DHT22;7344;50.864;4.362;2022-08-03T04:16:49;20.70;39.80
14517;DHT22;7344;50.864;4.362;2022-08-03T04:19:40;20.70;40.40
14517;DHT22;7344;50.864;4.362;2022-08-03T04:22:10;20.70;38.50
14517;DHT22;7344;50.864;4.362;2022-08-03T04:24:57;20.70;39.40
14517;DHT22;7344;50.864;4.362;2022-08-03T04:27:26;20.70;40.30
14517;DHT22;7344;50.864;4.362;2022-08-03T04:29:53;20.80;37.90
14517;DHT22;7344;50.864;4.362;2022-08-03T04:32:20;20.80;39.60
14517;DHT22;7344;50.864;4.362;2022-08-03T04:34:50;21.00;39.30
14517;DHT22;7344;50.864;4.362;2022-08-03T04:37:42;21.20;26.10
14517;DHT22;7344;50.864;4.362;2022-08-03T04:40:13;21.90;1.40
14517;DHT22;7344;50.864;4.362;2022-08-03T04:42:39;22.40;1.00
14517;DHT22;7344;50.864;4.362;2022-08-03T04:45:08;22.70;1.00
14517;DHT22;7344;50.864;4.362;2022-08-03T04:47:37;23.00;1.00
14517;DHT22;7344;50.864;4.362;2022-08-03T04:50:04;23.40;1.00
14517;DHT22;7344;50.864;4.362;2022-08-03T04:52:30;24.10;1.00
14517;DHT22;7344;50.864;4.362;2022-08-03T04:54:55;25.00;1.00
14517;DHT22;7344;50.864;4.362;2022-08-03T04:57:22;26.00;1.00
14517;DHT22;7344;50.864;4.362;2022-08-03T04:59:48;26.80;99.90
14517;DHT22;7344;50.864;4.362;2022-08-03T05:02:17;27.90;1.00
14517;DHT22;7344;50.864;4.362;2022-08-03T05:04:42;28.50;1.00
14517;DHT22;7344;50.864;4.362;2022-08-03T05:07:14;28.80;1.00
14517;DHT22;7344;50.864;4.362;2022-08-03T05:09:40;29.20;70.00
14517;DHT22;7344;50.864;4.362;2022-08-03T05:12:06;30.00;1.00
14517;DHT22;7344;50.864;4.362;2022-08-03T05:14:32;31.20;1.00
14517;DHT22;7344;50.864;4.362;2022-08-03T05:16:58;31.60;99.90
14517;DHT22;7344;50.864;4.362;2022-08-03T05:19:24;31.90;99.90
14517;DHT22;7344;50.864;4.362;2022-08-03T05:21:50;32.20;99.90
14517;DHT22;7344;50.864;4.362;2022-08-03T05:24:15;32.90;99.90
14517;DHT22;7344;50.864;4.362;2022-08-03T05:26:41;33.80;99.90
14517;DHT22;7344;50.864;4.362;2022-08-03T05:29:06;33.90;99.90
14517;DHT22;7344;50.864;4.362;2022-08-03T05:31:32;34.60;99.90
14517;DHT22;7344;50.864;4.362;2022-08-03T05:33:58;35.20;99.90
14517;DHT22;7344;50.864;4.362;2022-08-03T05:36:23;35.70;99.90
14517;DHT22;7344;50.864;4.362;2022-08-03T05:38:49;36.10;99.90
14517;DHT22;7344;50.864;4.362;2022-08-03T05:41:14;36.20;99.90
14517;DHT22;7344;50.864;4.362;2022-08-03T05:43:40;36.00;99.90
14517;DHT22;7344;50.864;4.362;2022-08-03T05:46:06;36.80;99.90
14517;DHT22;7344;50.864;4.362;2022-08-03T05:48:31;37.10;99.90
14517;DHT22;7344;50.864;4.362;2022-08-03T05:50:57;37.90;98.90
14517;DHT22;7344;50.864;4.362;2022-08-03T05:53:22;38.40;87.80
14517;DHT22;7344;50.864;4.362;2022-08-03T05:55:48;38.30;75.10
14517;DHT22;7344;50.864;4.362;2022-08-03T05:58:14;38.10;68.50
14517;DHT22;7344;50.864;4.362;2022-08-03T06:00:39;38.60;58.20
14517;DHT22;7344;50.864;4.362;2022-08-03T06:03:05;38.40;54.10
14517;DHT22;7344;50.864;4.362;2022-08-03T06:05:30;37.80;52.30
14517;DHT22;7344;50.864;4.362;2022-08-03T06:07:57;37.70;51.20
14517;DHT22;7344;50.864;4.362;2022-08-03T06:10:22;36.80;54.10
14517;DHT22;7344;50.864;4.362;2022-08-03T06:12:48;36.40;58.80
14517;DHT22;7344;50.864;4.362;2022-08-03T06:15:15;36.70;59.00
14517;DHT22;7344;50.864;4.362;2022-08-03T06:17:45;37.60;54.30
14517;DHT22;7344;50.864;4.362;2022-08-03T06:20:11;37.50;49.90
14517;DHT22;7344;50.864;4.362;2022-08-03T06:22:37;37.80;45.80
14517;DHT22;7344;50.864;4.362;2022-08-03T06:25:02;37.50;37.90
14517;DHT22;7344;50.864;4.362;2022-08-03T06:27:28;36.30;45.90
14517;DHT22;7344;50.864;4.362;2022-08-03T06:29:54;37.00;50.80
14517;DHT22;7344;50.864;4.362;2022-08-03T06:32:19;37.40;43.20
14517;DHT22;7344;50.864;4.362;2022-08-03T06:34:47;37.80;41.60
14517;DHT22;7344;50.864;4.362;2022-08-03T06:37:13;38.80;36.50
14517;DHT22;7344;50.864;4.362;2022-08-03T06:39:38;38.90;26.10
14517;DHT22;7344;50.864;4.362;2022-08-03T06:42:04;39.50;24.10
14517;DHT22;7344;50.864;4.362;2022-08-03T06:44:30;39.30;22.20
14517;DHT22;7344;50.864;4.362;2022-08-03T06:46:55;40.10;17.10
14517;DHT22;7344;50.864;4.362;2022-08-03T06:49:21;40.30;13.30
14517;DHT22;7344;50.864;4.362;2022-08-03T06:51:47;39.70;11.90
14517;DHT22;7344;50.864;4.362;2022-08-03T06:54:12;40.30;1.00
14517;DHT22;7344;50.864;4.362;2022-08-03T06:56:38;41.00;1.00
14517;DHT22;7344;50.864;4.362;2022-08-03T06:59:04;40.80;1.00
14517;DHT22;7344;50.864;4.362;2022-08-03T07:01:29;40.30;1.00
14517;DHT22;7344;50.864;4.362;2022-08-03T07:03:55;41.30;1.00
14517;DHT22;7344;50.864;4.362;2022-08-03T07:06:21;41.60;1.00
14517;DHT22;7344;50.864;4.362;2022-08-03T07:08:46;42.00;1.00
14517;DHT22;7344;50.864;4.362;2022-08-03T07:11:12;42.00;1.00
14517;DHT22;7344;50.864;4.362;2022-08-03T07:13:37;41.00;1.00
14517;DHT22;7344;50.864;4.362;2022-08-03T07:16:05;41.80;1.00
14517;DHT22;7344;50.864;4.362;2022-08-03T07:18:31;42.20;1.00
14517;DHT22;7344;50.864;4.362;2022-08-03T07:20:57;42.10;1.00
14517;DHT22;7344;50.864;4.362;2022-08-03T07:23:23;42.60;1.00
14517;DHT22;7344;50.864;4.362;2022-08-03T07:25:49;42.90;1.00
14517;DHT22;7344;50.864;4.362;2022-08-03T07:28:15;43.00;1.00
14517;DHT22;7344;50.864;4.362;2022-08-03T07:30:41;42.00;1.00
14517;DHT22;7344;50.864;4.362;2022-08-03T07:33:06;41.20;1.00
14517;DHT22;7344;50.864;4.362;2022-08-03T07:35:32;41.00;1.00
14517;DHT22;7344;50.864;4.362;2022-08-03T07:37:57;40.50;1.00
14517;DHT22;7344;50.864;4.362;2022-08-03T07:40:23;40.30;1.00
14517;DHT22;7344;50.864;4.362;2022-08-03T07:42:48;40.80;1.00
14517;DHT22;7344;50.864;4.362;2022-08-03T07:45:14;38.80;1.00
14517;DHT22;7344;50.864;4.362;2022-08-03T07:47:40;40.30;1.00
14517;DHT22;7344;50.864;4.362;2022-08-03T07:50:06;40.40;1.00
14517;DHT22;7344;50.864;4.362;2022-08-03T07:52:32;40.60;1.00
14517;DHT22;7344;50.864;4.362;2022-08-03T07:55:24;40.70;1.00
14517;DHT22;7344;50.864;4.362;2022-08-03T07:58:06;40.00;1.00
14517;DHT22;7344;50.864;4.362;2022-08-03T08:00:34;40.70;1.00
14517;DHT22;7344;50.864;4.362;2022-08-03T08:03:00;41.20;1.00
14517;DHT22;7344;50.864;4.362;2022-08-03T08:05:26;41.10;1.00
14517;DHT22;7344;50.864;4.362;2022-08-03T08:07:52;40.70;1.00
14517;DHT22;7344;50.864;4.362;2022-08-03T08:10:18;40.90;1.00
14517;DHT22;7344;50.864;4.362;2022-08-03T08:12:45;41.40;1.00
14517;DHT22;7344;50.864;4.362;2022-08-03T08:15:10;41.60;1.00
14517;DHT22;7344;50.864;4.362;2022-08-03T08:17:54;41.90;1.00
14517;DHT22;7344;50.864;4.362;2022-08-03T08:20:22;41.50;1.00
14517;DHT22;7344;50.864;4.362;2022-08-03T08:22:48;40.70;1.00
14517;DHT22;7344;50.864;4.362;2022-08-03T08:25:14;40.40;1.00
14517;DHT22;7344;50.864;4.362;2022-08-03T08:27:48;39.50;1.00
14517;DHT22;7344;50.864;4.362;2022-08-03T08:30:16;39.40;1.00
14517;DHT22;7344;50.864;4.362;2022-08-03T08:32:44;40.60;1.00
14517;DHT22;7344;50.864;4.362;2022-08-03T08:35:10;40.80;1.00
14517;DHT22;7344;50.864;4.362;2022-08-03T08:37:36;41.40;1.00
14517;DHT22;7344;50.864;4.362;2022-08-03T08:40:03;41.70;1.00
14517;DHT22;7344;50.864;4.362;2022-08-03T08:42:30;40.70;1.00
14517;DHT22;7344;50.864;4.362;2022-08-03T08:44:56;40.70;1.00
14517;DHT22;7344;50.864;4.362;2022-08-03T08:47:24;39.60;1.00
14517;DHT22;7344;50.864;4.362;2022-08-03T08:49:53;39.00;1.00
14517;DHT22;7344;50.864;4.362;2022-08-03T08:52:24;39.00;1.00
14517;DHT22;7344;50.864;4.362;2022-08-03T08:54:56;38.50;1.00
14517;DHT22;7344;50.864;4.362;2022-08-03T08:57:27;38.80;1.00
14517;DHT22;7344;50.864;4.362;2022-08-03T08:59:54;38.70;1.00
14517;DHT22;7344;50.864;4.362;2022-08-03T09:02:25;39.70;1.00
14517;DHT22;7344;50.864;4.362;2022-08-03T09:04:54;39.40;1.00
14517;DHT22;7344;50.864;4.362;2022-08-03T09:07:19;39.50;1.00
14517;DHT22;7344;50.864;4.362;2022-08-03T09:09:45;39.30;1.00
14517;DHT22;7344;50.864;4.362;2022-08-03T09:12:11;39.20;1.00
14517;DHT22;7344;50.864;4.362;2022-08-03T09:14:36;39.40;1.00
14517;DHT22;7344;50.864;4.362;2022-08-03T09:17:03;40.00;1.00
14517;DHT22;7344;50.864;4.362;2022-08-03T09:19:33;41.20;1.00
14517;DHT22;7344;50.864;4.362;2022-08-03T09:22:09;41.20;1.00
14517;DHT22;7344;50.864;4.362;2022-08-03T09:24:35;41.70;1.00
14517;DHT22;7344;50.864;4.362;2022-08-03T09:27:03;41.70;1.00
14517;DHT22;7344;50.864;4.362;2022-08-03T09:29:31;40.90;1.00
14517;DHT22;7344;50.864;4.362;2022-08-03T09:32:02;40.40;1.00
14517;DHT22;7344;50.864;4.362;2022-08-03T09:34:28;41.20;1.00
14517;DHT22;7344;50.864;4.362;2022-08-03T09:36:56;41.30;1.00
14517;DHT22;7344;50.864;4.362;2022-08-03T09:39:26;40.90;1.00
14517;DHT22;7344;50.864;4.362;2022-08-03T09:42:13;40.70;1.00
14517;DHT22;7344;50.864;4.362;2022-08-03T09:44:41;40.90;1.00
14517;DHT22;7344;50.864;4.362;2022-08-03T09:47:08;40.30;1.00
14517;DHT22;7344;50.864;4.362;2022-08-03T09:49:35;39.90;1.00
14517;DHT22;7344;50.864;4.362;2022-08-03T09:52:14;39.60;1.00
14517;DHT22;7344;50.864;4.362;2022-08-03T09:54:41;39.10;1.00
14517;DHT22;7344;50.864;4.362;2022-08-03T09:57:07;39.60;1.00
14517;DHT22;7344;50.864;4.362;2022-08-03T09:59:33;39.60;1.00
14517;DHT22;7344;50.864;4.362;2022-08-03T10:01:59;39.80;1.00
14517;DHT22;7344;50.864;4.362;2022-08-03T10:04:25;39.00;1.00
14517;DHT22;7344;50.864;4.362;2022-08-03T10:09:27;38.80;1.00
14517;DHT22;7344;50.864;4.362;2022-08-03T10:11:53;37.70;1.00
14517;DHT22;7344;50.864;4.362;2022-08-03T10:14:19;37.10;1.00
14517;DHT22;7344;50.864;4.362;2022-08-03T10:16:47;36.60;1.00
14517;DHT22;7344;50.864;4.362;2022-08-03T10:19:14;37.60;1.00
14517;DHT22;7344;50.864;4.362;2022-08-03T10:21:47;38.00;1.00
14517;DHT22;7344;50.864;4.362;2022-08-03T10:24:16;38.20;1.00
14517;DHT22;7344;50.864;4.362;2022-08-03T10:26:43;38.60;1.00
14517;DHT22;7344;50.864;4.362;2022-08-03T10:29:17;39.40;1.00
14517;DHT22;7344;50.864;4.362;2022-08-03T10:31:46;38.70;1.00
14517;DHT22;7344;50.864;4.362;2022-08-03T10:34:24;38.80;1.00
14517;DHT22;7344;50.864;4.362;2022-08-03T10:36:52;39.20;1.00
14517;DHT22;7344;50.864;4.362;2022-08-03T10:39:21;39.00;1.00
14517;DHT22;7344;50.864;4.362;2022-08-03T10:41:49;39.40;1.00
14517;DHT22;7344;50.864;4.362;2022-08-03T10:44:20;38.60;1.00
14517;DHT22;7344;50.864;4.362;2022-08-03T10:46:47;38.80;1.00
14517;DHT22;7344;50.864;4.362;2022-08-03T10:49:18;38.80;1.00
14517;DHT22;7344;50.864;4.362;2022-08-03T10:51:46;38.90;1.00
14517;DHT22;7344;50.864;4.362;2022-08-03T11:00:07;38.50;1.00
14517;DHT22;7344;50.864;4.362;2022-08-03T11:05:33;39.10;1.00
14517;DHT22;7344;50.864;4.362;2022-08-03T11:16:22;37.00;1.00
14517;DHT22;7344;50.864;4.362;2022-08-03T11:18:57;36.90;1.00
14517;DHT22;7344;50.864;4.362;2022-08-03T11:27:21;37.90;1.00
14517;DHT22;7344;50.864;4.362;2022-08-03T11:35:10;37.30;1.00
14517;DHT22;7344;50.864;4.362;2022-08-03T11:43:01;37.50;1.00
14517;DHT22;7344;50.864;4.362;2022-08-03T11:45:27;37.20;1.00
14517;DHT22;7344;50.864;4.362;2022-08-03T11:47:54;37.10;1.00
14517;DHT22;7344;50.864;4.362;2022-08-03T11:50:21;37.20;1.00
14517;DHT22;7344;50.864;4.362;2022-08-03T11:52:47;36.90;1.00
14517;DHT22;7344;50.864;4.362;2022-08-03T11:55:16;36.80;1.00
14517;DHT22;7344;50.864;4.362;2022-08-03T11:57:43;36.50;1.00
14517;DHT22;7344;50.864;4.362;2022-08-03T12:00:29;36.40;1.00
14517;DHT22;7344;50.864;4.362;2022-08-03T12:02:55;36.50;1.00
14517;DHT22;7344;50.864;4.362;2022-08-03T12:05:52;36.10;1.00
14517;DHT22;7344;50.864;4.362;2022-08-03T12:10:53;35.70;1.00
14517;DHT22;7344;50.864;4.362;2022-08-03T12:13:20;35.20;1.00
14517;DHT22;7344;50.864;4.362;2022-08-03T12:15:59;34.80;1.00
14517;DHT22;7344;50.864;4.362;2022-08-03T12:18:25;34.20;1.00
14517;DHT22;7344;50.864;4.362;2022-08-03T12:20:52;34.20;1.00
14517;DHT22;7344;50.864;4.362;2022-08-03T12:23:19;34.20;1.00
14517;DHT22;7344;50.864;4.362;2022-08-03T12:25:46;34.00;1.00
14517;DHT22;7344;50.864;4.362;2022-08-03T12:30:38;33.90;1.00
14517;DHT22;7344;50.864;4.362;2022-08-03T12:36:00;33.70;1.10
14517;DHT22;7344;50.864;4.362;2022-08-03T12:38:28;33.90;3.20
14517;DHT22;7344;50.864;4.362;2022-08-03T12:40:58;33.70;2.80
14517;DHT22;7344;50.864;4.362;2022-08-03T12:43:24;33.70;2.90
14517;DHT22;7344;50.864;4.362;2022-08-03T12:45:50;33.60;1.00
14517;DHT22;7344;50.864;4.362;2022-08-03T12:48:15;33.50;2.60
14517;DHT22;7344;50.864;4.362;2022-08-03T12:50:41;33.70;4.90
14517;DHT22;7344;50.864;4.362;2022-08-03T12:53:08;33.90;4.50
14517;DHT22;7344;50.864;4.362;2022-08-03T12:55:37;33.90;5.80
14517;DHT22;7344;50.864;4.362;2022-08-03T12:58:05;33.80;4.10
14517;DHT22;7344;50.864;4.362;2022-08-03T13:00:32;33.70;3.80
14517;DHT22;7344;50.864;4.362;2022-08-03T13:03:06;33.80;5.20
14517;DHT22;7344;50.864;4.362;2022-08-03T13:05:41;34.10;5.30
14517;DHT22;7344;50.864;4.362;2022-08-03T13:08:22;34.10;3.50
14517;DHT22;7344;50.864;4.362;2022-08-03T13:10:48;34.20;1.20
14517;DHT22;7344;50.864;4.362;2022-08-03T13:13:14;34.10;3.20
14517;DHT22;7344;50.864;4.362;2022-08-03T13:15:40;34.20;1.00
14517;DHT22;7344;50.864;4.362;2022-08-03T13:18:06;34.40;2.50
14517;DHT22;7344;50.864;4.362;2022-08-03T13:20:33;34.30;1.40
14517;DHT22;7344;50.864;4.362;2022-08-03T13:22:58;34.70;3.40
14517;DHT22;7344;50.864;4.362;2022-08-03T13:25:24;34.70;1.00
14517;DHT22;7344;50.864;4.362;2022-08-03T13:27:50;34.90;1.00
14517;DHT22;7344;50.864;4.362;2022-08-03T13:30:17;34.80;12.10
14517;DHT22;7344;50.864;4.362;2022-08-03T13:32:43;34.60;1.00
14517;DHT22;7344;50.864;4.362;2022-08-03T13:35:09;34.40;1.00
14517;DHT22;7344;50.864;4.362;2022-08-03T13:37:35;34.20;1.80
14517;DHT22;7344;50.864;4.362;2022-08-03T13:40:02;34.10;1.00
14517;DHT22;7344;50.864;4.362;2022-08-03T13:42:29;33.90;2.20
14517;DHT22;7344;50.864;4.362;2022-08-03T13:44:55;33.90;3.80
14517;DHT22;7344;50.864;4.362;2022-08-03T13:47:21;33.80;2.60
14517;DHT22;7344;50.864;4.362;2022-08-03T13:49:47;34.00;3.10
14517;DHT22;7344;50.864;4.362;2022-08-03T13:52:12;33.80;3.00
14517;DHT22;7344;50.864;4.362;2022-08-03T13:54:38;33.90;4.10
14517;DHT22;7344;50.864;4.362;2022-08-03T13:57:03;34.00;2.00
14517;DHT22;7344;50.864;4.362;2022-08-03T13:59:29;34.40;2.20
14517;DHT22;7344;50.864;4.362;2022-08-03T14:01:55;34.60;2.20
14517;DHT22;7344;50.864;4.362;2022-08-03T14:04:20;34.50;1.00
14517;DHT22;7344;50.864;4.362;2022-08-03T14:06:46;34.10;1.00
14517;DHT22;7344;50.864;4.362;2022-08-03T14:09:12;33.90;2.50
14517;DHT22;7344;50.864;4.362;2022-08-03T14:11:42;33.90;2.90
14517;DHT22;7344;50.864;4.362;2022-08-03T14:14:08;34.00;3.60
14517;DHT22;7344;50.864;4.362;2022-08-03T14:16:35;33.90;5.70
14517;DHT22;7344;50.864;4.362;2022-08-03T14:19:01;33.90;1.20
14517;DHT22;7344;50.864;4.362;2022-08-03T14:21:27;33.90;3.50
14517;DHT22;7344;50.864;4.362;2022-08-03T14:23:52;33.40;2.40
14517;DHT22;7344;50.864;4.362;2022-08-03T14:26:18;33.10;7.20
14517;DHT22;7344;50.864;4.362;2022-08-03T14:28:45;33.10;9.40
14517;DHT22;7344;50.864;4.362;2022-08-03T14:31:11;33.40;8.50
14517;DHT22;7344;50.864;4.362;2022-08-03T14:33:37;33.50;9.60
14517;DHT22;7344;50.864;4.362;2022-08-03T14:36:03;33.60;10.20
14517;DHT22;7344;50.864;4.362;2022-08-03T14:38:29;33.70;10.90
14517;DHT22;7344;50.864;4.362;2022-08-03T14:40:55;33.80;7.80
14517;DHT22;7344;50.864;4.362;2022-08-03T14:43:21;33.80;9.20
14517;DHT22;7344;50.864;4.362;2022-08-03T14:45:51;33.60;10.00
14517;DHT22;7344;50.864;4.362;2022-08-03T14:48:19;33.80;11.50
14517;DHT22;7344;50.864;4.362;2022-08-03T14:50:44;33.80;8.20
14517;DHT22;7344;50.864;4.362;2022-08-03T14:53:10;34.10;6.10
14517;DHT22;7344;50.864;4.362;2022-08-03T14:55:36;34.00;4.50
14517;DHT22;7344;50.864;4.362;2022-08-03T14:58:01;33.90;5.60
14517;DHT22;7344;50.864;4.362;2022-08-03T15:00:34;33.80;5.60
14517;DHT22;7344;50.864;4.362;2022-08-03T15:03:00;33.80;8.80
14517;DHT22;7344;50.864;4.362;2022-08-03T15:05:26;33.40;9.90
14517;DHT22;7344;50.864;4.362;2022-08-03T15:07:52;33.50;8.40
14517;DHT22;7344;50.864;4.362;2022-08-03T15:10:18;33.40;8.90
14517;DHT22;7344;50.864;4.362;2022-08-03T15:12:43;33.40;8.40
14517;DHT22;7344;50.864;4.362;2022-08-03T15:15:09;33.30;9.20
14517;DHT22;7344;50.864;4.362;2022-08-03T15:17:36;33.30;11.60
14517;DHT22;7344;50.864;4.362;2022-08-03T15:20:03;33.40;7.80
14517;DHT22;7344;50.864;4.362;2022-08-03T15:22:29;33.40;13.00
14517;DHT22;7344;50.864;4.362;2022-08-03T15:24:55;33.60;10.20
14517;DHT22;7344;50.864;4.362;2022-08-03T15:27:21;33.80;9.60
14517;DHT22;7344;50.864;4.362;2022-08-03T15:29:46;33.70;9.80
14517;DHT22;7344;50.864;4.362;2022-08-03T15:32:12;33.80;10.10
14517;DHT22;7344;50.864;4.362;2022-08-03T15:34:38;33.70;9.60
14517;DHT22;7344;50.864;4.362;2022-08-03T15:37:05;33.80;7.10
14517;DHT22;7344;50.864;4.362;2022-08-03T15:39:31;33.60;11.30
14517;DHT22;7344;50.864;4.362;2022-08-03T15:41:56;33.40;7.90
14517;DHT22;7344;50.864;4.362;2022-08-03T15:44:22;33.60;9.40
14517;DHT22;7344;50.864;4.362;2022-08-03T15:46:48;33.80;8.10
14517;DHT22;7344;50.864;4.362;2022-08-03T15:49:14;34.00;5.30
14517;DHT22;7344;50.864;4.362;2022-08-03T15:51:40;34.10;9.20
14517;DHT22;7344;50.864;4.362;2022-08-03T15:54:06;34.20;7.90
14517;DHT22;7344;50.864;4.362;2022-08-03T15:56:32;34.20;6.10
14517;DHT22;7344;50.864;4.362;2022-08-03T15:58:57;34.30;6.10
14517;DHT22;7344;50.864;4.362;2022-08-03T16:01:24;34.40;5.70
14517;DHT22;7344;50.864;4.362;2022-08-03T16:03:50;34.40;7.40
14517;DHT22;7344;50.864;4.362;2022-08-03T16:06:16;34.20;6.00
14517;DHT22;7344;50.864;4.362;2022-08-03T16:08:42;34.10;4.90
14517;DHT22;7344;50.864;4.362;2022-08-03T16:11:07;34.20;5.70
14517;DHT22;7344;50.864;4.362;2022-08-03T16:13:33;34.20;4.80
14517;DHT22;7344;50.864;4.362;2022-08-03T16:15:59;34.30;5.90
14517;DHT22;7344;50.864;4.362;2022-08-03T16:18:25;34.20;4.20
14517;DHT22;7344;50.864;4.362;2022-08-03T16:20:50;34.20;5.70
14517;DHT22;7344;50.864;4.362;2022-08-03T16:23:16;34.10;5.20
14517;DHT22;7344;50.864;4.362;2022-08-03T16:25:45;33.90;6.40
14517;DHT22;7344;50.864;4.362;2022-08-03T16:28:11;34.00;7.90
14517;DHT22;7344;50.864;4.362;2022-08-03T16:30:37;33.90;8.80
14517;DHT22;7344;50.864;4.362;2022-08-03T16:33:03;33.90;10.40
14517;DHT22;7344;50.864;4.362;2022-08-03T16:35:29;33.70;22.20
14517;DHT22;7344;50.864;4.362;2022-08-03T16:37:55;33.60;9.10
14517;DHT22;7344;50.864;4.362;2022-08-03T16:40:20;33.50;8.20
14517;DHT22;7344;50.864;4.362;2022-08-03T16:42:46;33.30;9.20
14517;DHT22;7344;50.864;4.362;2022-08-03T16:45:12;33.30;12.60
14517;DHT22;7344;50.864;4.362;2022-08-03T16:47:38;33.10;12.80
14517;DHT22;7344;50.864;4.362;2022-08-03T16:50:04;32.90;12.40
14517;DHT22;7344;50.864;4.362;2022-08-03T16:52:30;32.90;18.60